Time;durP1;ratioP1;P1;durP2;ratioP2;P2;SDS_P1;SDS_P2;PMS_P1;PMS_P2;Temp;Humidity;BMP_temperature;BMP_pressure;BME280_temperature;BME280_humidity;BME280_pressure;Samples;Min_cycle;Max_cycle;Signal;HPM_P1;HPM_P2
2021/10/29 00:02:27;;;;;;;3.53;2.70;;;29.50;93.50;;;;;;5072432;28;20423;-73
2021/10/29 00:04:55;;;;;;;3.10;2.80;;;29.40;90.70;;;;;;5072423;28;20039;-72
2021/10/29 00:07:23;;;;;;;3.45;3.10;;;29.40;90.90;;;;;;5072105;28;20024;-74
2021/10/29 00:09:51;;;;;;;2.97;2.70;;;29.30;91.70;;;;;;5071240;28;20020;-74
2021/10/29 00:12:19;;;;;;;3.65;2.60;;;29.30;93.60;;;;;;5074651;28;20031;-72
2021/10/29 00:14:47;;;;;;;4.35;2.80;;;29.20;93.50;;;;;;5075887;28;20431;-72
2021/10/29 00:17:14;;;;;;;4.00;2.72;;;29.00;93.30;;;;;;5075633;28;20437;-72
2021/10/29 00:19:41;;;;;;;4.65;2.85;;;29.00;92.90;;;;;;5074441;28;20024;-72
2021/10/29 00:22:09;;;;;;;3.03;2.60;;;28.90;92.70;;;;;;5074470;28;20136;-73
2021/10/29 00:24:36;;;;;;;3.08;2.75;;;29.00;93.10;;;;;;5074418;28;20073;-73
2021/10/29 00:27:04;;;;;;;3.75;2.35;;;29.00;92.60;;;;;;5074186;28;20127;-74
2021/10/29 00:29:32;;;;;;;2.58;2.40;;;29.10;92.80;;;;;;5074366;28;20481;-72
2021/10/29 00:32:00;;;;;;;4.25;2.70;;;29.10;92.70;;;;;;5075558;28;20021;-73
2021/10/29 00:34:27;;;;;;;3.00;2.80;;;29.00;93.80;;;;;;5075806;28;20023;-72
2021/10/29 00:36:55;;;;;;;2.97;2.75;;;29.10;94.50;;;;;;5075058;28;20056;-73
2021/10/29 00:39:22;;;;;;;3.75;2.80;;;29.00;93.70;;;;;;5075997;28;20094;-72
2021/10/29 00:41:50;;;;;;;4.70;2.60;;;29.10;93.70;;;;;;5076113;28;20027;-73
2021/10/29 00:44:25;;;;;;;3.00;2.47;;;28.90;94.10;;;;;;5076041;28;20028;-72
2021/10/29 00:46:53;;;;;;;6.03;2.30;;;29.00;94.20;;;;;;5076068;28;20146;-72
2021/10/29 00:49:21;;;;;;;4.13;2.40;;;29.30;93.80;;;;;;5075936;28;20013;-72
2021/10/29 00:51:49;;;;;;;2.40;2.20;;;;;;;;;;5074746;28;20024;-72
2021/10/29 00:54:17;;;;;;;2.55;2.40;;;;;;;;;;5075663;28;20100;-73
2021/10/29 00:56:45;;;;;;;3.60;2.40;;;;;;;;;;5074419;28;20028;-73
2021/10/29 00:59:12;;;;;;;5.78;2.45;;;;;;;;;;5075801;28;20541;-72
2021/10/29 01:01:39;;;;;;;3.22;2.60;;;;;;;;;;5075829;28;20025;-73
2021/10/29 01:04:07;;;;;;;3.17;2.45;;;;;;;;;;5074330;28;20401;-73
2021/10/29 01:06:34;;;;;;;2.70;2.50;;;;;;;;;;5075860;28;20438;-73
2021/10/29 01:09:02;;;;;;;5.45;3.47;;;;;;;;;;5075798;28;20017;-73
2021/10/29 01:11:29;;;;;;;3.15;2.40;;;;;;;;;;5075548;28;20016;-73
2021/10/29 01:13:56;;;;;;;2.70;2.60;;;;;;;;;;5075715;28;20027;-74
2021/10/29 01:16:23;;;;;;;4.25;2.78;;;;;;;;;;5075398;28;20100;-72
2021/10/29 01:18:51;;;;;;;5.05;3.13;;;;;;;;;;5075210;28;20119;-73
2021/10/29 01:21:18;;;;;;;2.47;2.33;;;;;;;;;;5074542;28;20032;-73
2021/10/29 01:23:45;;;;;;;3.33;2.58;;;;;;;;;;5075217;28;20025;-73
2021/10/29 01:26:14;;;;;;;4.40;2.80;;;;;;;;;;5075307;28;20031;-73
2021/10/29 01:28:41;;;;;;;2.42;2.20;;;;;;;;;;5075253;28;20355;-73
2021/10/29 01:31:09;;;;;;;4.88;2.10;;;;;;;;;;5074099;28;20031;-73
2021/10/29 01:33:37;;;;;;;4.57;2.58;;;;;;;;;;5075528;28;20013;-73
2021/10/29 01:36:05;;;;;;;4.57;2.60;;;;;;;;;;5057531;28;20033;-73
2021/10/29 01:38:42;;;;;;;4.47;2.40;;;;;;;;;;5075121;28;20016;-73
2021/10/29 01:41:11;;;;;;;5.60;2.67;;;;;;;;;;5073659;28;20024;-74
2021/10/29 01:43:42;;;;;;;4.78;2.50;;;;;;;;;;5075052;28;20092;-73
2021/10/29 01:46:09;;;;;;;2.97;2.60;;;;;;;;;;5074706;28;20017;-74
2021/10/29 01:48:43;;;;;;;4.78;2.30;;;;;;;;;;5074900;28;20023;-73
2021/10/29 01:51:10;;;;;;;5.88;2.40;;;;;;;;;;5074780;28;20028;-73
2021/10/29 01:53:37;;;;;;;2.83;2.30;;;;;;;;;;5073625;28;20025;-73
2021/10/29 01:56:05;;;;;;;3.67;2.50;;;;;;;;;;5074778;28;20540;-73
2021/10/29 01:58:32;;;;;;;4.97;2.42;;;;;;;;;;5073707;28;20389;-74
2021/10/29 02:00:59;;;;;;;4.95;2.30;;;;;;;;;;5075039;28;20098;-74
2021/10/29 02:03:26;;;;;;;6.00;2.58;;;;;;;;;;5074466;28;20036;-73
2021/10/29 02:05:53;;;;;;;6.75;3.05;;;;;;;;;;5073572;28;20046;-73
2021/10/29 02:08:27;;;;;;;6.72;2.40;;;;;;;;;;5073106;28;20105;-73
2021/10/29 02:10:55;;;;;;;4.10;2.60;;;;;;;;;;5073378;28;20409;-73
2021/10/29 02:13:23;;;;;;;3.90;2.17;;;;;;;;;;5074309;28;20029;-71
2021/10/29 02:15:50;;;;;;;5.85;2.58;;;;;;;;;;5074149;28;20508;-72
2021/10/29 02:18:17;;;;;;;3.33;3.00;;;;;;;;;;5074311;28;20080;-72
2021/10/29 02:20:45;;;;;;;5.07;2.85;;;;;;;;;;5074152;28;20055;-72
2021/10/29 02:23:13;;;;;;;3.70;3.00;;;;;;;;;;5074228;28;20024;-72
2021/10/29 02:25:44;;;;;;;4.47;3.20;;;;;;;;;;5072829;28;20082;-72
2021/10/29 02:28:15;;;;;;;3.58;3.08;;;;;;;;;;5074058;28;20027;-72
2021/10/29 02:30:42;;;;;;;5.60;2.50;;;;;;;;;;5072855;28;20024;-72
2021/10/29 02:33:10;;;;;;;5.18;2.85;;;;;;;;;;5073465;28;20017;-72
2021/10/29 02:35:37;;;;;;;3.55;2.40;;;;;;;;;;5073400;28;20021;-70
2021/10/29 02:38:04;;;;;;;7.55;2.40;;;;;;;;;;5073520;28;20370;-71
2021/10/29 02:40:31;;;;;;;5.32;2.25;;;;;;;;;;5073557;28;20035;-70
2021/10/29 02:42:59;;;;;;;4.63;2.70;;;;;;;;;;5072996;28;20409;-71
2021/10/29 02:45:26;;;;;;;7.13;3.05;;;;;;;;;;5073943;28;20024;-71
2021/10/29 02:47:53;;;;;;;7.65;3.00;;;;;;;;;;5073730;28;20024;-71
2021/10/29 02:50:21;;;;;;;7.13;3.35;;;;;;;;;;5073906;28;20028;-71
2021/10/29 02:52:48;;;;;;;3.97;3.00;;;;;;;;;;5072732;28;20027;-70
2021/10/29 02:55:15;;;;;;;4.35;2.95;;;;;;;;;;5073807;28;20382;-71
2021/10/29 02:57:45;;;;;;;6.25;3.80;;;;;;;;;;5073640;28;20123;-70
2021/10/29 03:00:13;;;;;;;4.33;3.37;;;;;;;;;;5073851;28;20031;-71
2021/10/29 03:02:42;;;;;;;6.22;3.55;;;;;;;;;;5072532;28;20248;-70
2021/10/29 03:05:10;;;;;;;6.28;3.22;;;;;;;;;;5073640;28;20024;-71
2021/10/29 03:07:37;;;;;;;5.82;3.30;;;;;;;;;;5073381;28;20103;-71
2021/10/29 03:10:08;;;;;;;5.70;3.40;;;;;;;;;;5073590;28;20035;-71
2021/10/29 03:12:35;;;;;;;5.45;3.60;;;;;;;;;;5073478;28;20500;-71
2021/10/29 03:15:03;;;;;;;6.30;4.10;;;;;;;;;;5073115;28;20027;-71
2021/10/29 03:17:30;;;;;;;6.93;3.70;;;;;;;;;;5073222;28;20116;-71
2021/10/29 03:19:57;;;;;;;4.38;3.20;;;;;;;;;;5073249;28;20024;-71
2021/10/29 03:22:25;;;;;;;10.25;3.53;;;;;;;;;;5073542;28;20051;-71
2021/10/29 03:24:52;;;;;;;7.82;3.63;;;;;;;;;;5072084;28;20024;-70
2021/10/29 03:27:20;;;;;;;6.15;3.33;;;;;;;;;;5073414;28;20039;-72
2021/10/29 03:29:48;;;;;;;5.63;3.38;;;;;;;;;;5073308;28;20021;-71
2021/10/29 03:32:17;;;;;;;9.57;3.80;;;;;;;;;;5071836;28;20485;-71
2021/10/29 03:34:44;;;;;;;;;;;;;;;;;;5072649;28;20024;-71
2021/10/29 03:40:12;;;;;;;5.95;3.20;;;;;;;;;;5073391;28;20465;-71
2021/10/29 03:42:56;;;;;;;9.13;3.85;;;;;;;;;;5071888;28;20040;-71
2021/10/29 03:45:24;;;;;;;4.55;3.50;;;;;;;;;;5074444;28;20081;-71
2021/10/29 03:47:55;;;;;;;8.75;3.67;;;;;;;;;;5077199;28;20098;-71
2021/10/29 03:50:28;;;;;;;8.90;3.08;;;;;;;;;;5077566;28;20020;-71
2021/10/29 03:55:27;;;;;;;8.00;3.80;;;;;;;;;;5077150;28;20024;-71
2021/10/29 03:57:54;;;;;;;14.02;3.53;;;;;;;;;;5077068;28;20497;-71
2021/10/29 04:00:28;;;;;;;12.40;4.03;;;;;;;;;;5077096;28;20035;-71
2021/10/29 04:03:00;;;;;;;11.82;3.53;;;;;;;;;;5077245;28;20075;-70
2021/10/29 04:05:28;;;;;;;12.00;3.72;;;;;;;;;;5076677;28;20103;-71
2021/10/29 04:07:55;;;;;;;10.52;3.35;;;;;;;;;;5075496;28;20028;-71
2021/10/29 04:10:28;;;;;;;14.60;3.30;;;;;;;;;;5077109;28;20432;-70
2021/10/29 04:12:56;;;;;;;11.63;3.35;;;;;;;;;;5075322;28;20033;-71
2021/10/29 04:15:23;;;;;;;10.50;3.30;;;;;;;;;;5076693;28;20029;-71
2021/10/29 04:17:50;;;;;;;11.30;3.40;;;;;;;;;;5076489;28;20041;-70
2021/10/29 04:20:18;;;;;;;15.38;3.20;;;;;;;;;;5075012;28;20543;-72
2021/10/29 04:22:46;;;;;;;11.50;3.47;;;;;;;;;;5076142;28;20031;-71
2021/10/29 04:25:13;;;;;;;9.65;2.72;;;;;;;;;;5075302;28;20029;-72
2021/10/29 04:27:55;;;;;;;10.82;2.88;;;;;;;;;;5075133;28;20115;-71
2021/10/29 04:30:24;;;;;;;13.68;3.05;;;;;;;;;;5076251;28;20367;-71
2021/10/29 04:32:51;;;;;;;9.32;2.67;;;;;;;;;;5076058;28;20416;-71
2021/10/29 04:35:18;;;;;;;10.77;2.75;;;;;;;;;;5076722;28;20100;-71
2021/10/29 04:37:46;;;;;;;10.85;2.70;;;;;;;;;;5076103;28;20029;-71
2021/10/29 04:40:13;;;;;;;12.48;2.92;;;;;;;;;;5076250;28;20025;-70
2021/10/29 04:42:41;;;;;;;19.75;3.47;;;;;;;;;;5076616;28;20032;-70
2021/10/29 04:45:09;;;;;;;11.18;2.80;;;;;;;;;;5076155;28;20039;-71
2021/10/29 04:47:36;;;;;;;10.68;2.50;;;;;;;;;;5074675;28;20032;-70
2021/10/29 04:50:04;;;;;;;13.35;2.92;;;;;;;;;;5075797;28;20030;-70
2021/10/29 04:52:31;;;;;;;9.73;3.28;;;;;;;;;;5076105;28;20017;-71
2021/10/29 04:54:58;;;;;;;15.55;3.65;;;;;;;;;;5075809;28;20070;-71
2021/10/29 04:57:25;;;;;;;19.45;3.30;;;;;;;;;;5074105;28;20029;-70
2021/10/29 04:59:53;;;;;;;17.13;3.10;;;;;;;;;;5075532;28;20035;-71
2021/10/29 05:02:20;;;;;;;17.75;3.92;;;31.40;72.60;;;;;;5075577;28;20021;-71
2021/10/29 05:04:48;;;;;;;13.25;3.17;;;31.00;66.50;;;;;;5074081;28;20501;-70
2021/10/29 05:07:15;;;;;;;14.55;2.85;;;31.00;73.40;;;;;;5074103;28;20025;-70
2021/10/29 05:09:42;;;;;;;18.92;3.08;;;31.10;72.00;;;;;;5074736;28;20027;-71
2021/10/29 05:12:10;;;;;;;13.00;2.75;;;31.40;69.90;;;;;;5075336;28;20025;-70
2021/10/29 05:14:37;;;;;;;16.38;2.88;;;31.20;60.20;;;;;;5074321;28;20017;-71
2021/10/29 05:17:04;;;;;;;16.50;2.75;;;;;;;;;;5075275;28;20501;-72
2021/10/29 05:19:31;;;;;;;11.52;2.78;;;;;;;;;;5075543;28;20025;-70
2021/10/29 05:21:58;;;;;;;8.40;2.22;;;;;;;;;;5074359;28;20032;-71
2021/10/29 05:24:26;;;;;;;13.80;2.92;;;31.20;85.90;;;;;;5074107;28;20028;-70
2021/10/29 05:26:53;;;;;;;13.95;2.35;;;31.40;74.30;;;;;;5075356;28;20024;-70
2021/10/29 05:29:20;;;;;;;11.38;2.97;;;30.90;72.10;;;;;;5075449;28;20358;-71
2021/10/29 05:31:48;;;;;;;13.88;2.78;;;30.50;65.50;;;;;;5075284;28;20027;-68
2021/10/29 05:34:15;;;;;;;11.55;2.92;;;30.30;64.10;;;;;;5074913;28;20024;-70
2021/10/29 05:36:43;;;;;;;8.48;2.53;;;30.30;59.60;;;;;;5075012;28;20017;-70
2021/10/29 05:39:10;;;;;;;11.27;2.50;;;30.20;59.60;;;;;;5073482;28;20028;-72
2021/10/29 05:41:38;;;;;;;14.20;2.60;;;30.20;59.80;;;;;;5073520;28;20032;-71
2021/10/29 05:44:05;;;;;;;10.55;2.92;;;30.70;63.60;;;;;;5074698;28;20020;-70
2021/10/29 05:46:33;;;;;;;13.30;2.90;;;30.40;59.90;;;;;;5073787;28;20405;-73
2021/10/29 05:49:00;;;;;;;12.40;2.45;;;30.40;74.00;;;;;;5074822;28;20021;-71
2021/10/29 05:51:28;;;;;;;8.82;2.35;;;30.40;61.20;;;;;;5073532;28;20024;-70
2021/10/29 05:54:14;;;;;;;14.63;2.30;;;30.30;60.00;;;;;;5074400;28;20028;-71
2021/10/29 05:56:42;;;;;;;13.85;2.67;;;30.30;59.90;;;;;;5073144;28;20527;-70
2021/10/29 05:59:09;;;;;;;10.63;2.47;;;30.30;59.90;;;;;;5074987;28;20465;-71
2021/10/29 06:01:37;;;;;;;13.88;3.47;;;30.20;60.00;;;;;;5074562;28;20020;-71
2021/10/29 06:04:04;;;;;;;13.32;2.70;;;30.10;59.80;;;;;;5073025;28;20040;-71
2021/10/29 06:06:31;;;;;;;14.90;3.40;;;30.10;60.90;;;;;;5074318;28;20155;-70
2021/10/29 06:08:59;;;;;;;12.25;3.35;;;30.10;60.40;;;;;;5072545;28;20020;-70
2021/10/29 06:11:28;;;;;;;15.55;3.20;;;30.30;60.20;;;;;;5074166;28;20070;-70
2021/10/29 06:13:56;;;;;;;12.90;2.72;;;30.30;60.50;;;;;;5072706;28;20028;-71
2021/10/29 06:16:24;;;;;;;11.82;3.00;;;30.20;60.20;;;;;;5073978;28;20470;-70
2021/10/29 06:18:52;;;;;;;10.48;3.03;;;30.20;60.10;;;;;;5072819;28;20044;-72
2021/10/29 06:21:30;;;;;;;14.80;3.40;;;30.30;60.20;;;;;;5073168;28;20021;-70
2021/10/29 06:24:08;;;;;;;7.07;2.55;;;30.40;59.40;;;;;;5074060;28;20090;-70
2021/10/29 06:26:47;;;;;;;13.52;3.35;;;30.30;59.30;;;;;;5072819;28;20047;-72
2021/10/29 06:29:14;;;;;;;8.35;2.70;;;30.50;59.50;;;;;;5072731;28;20077;-72
2021/10/29 06:31:42;;;;;;;9.07;3.10;;;30.60;58.80;;;;;;5074057;28;20027;-70
2021/10/29 06:34:10;;;;;;;13.30;3.17;;;30.90;58.40;;;;;;5073866;28;20024;-70
2021/10/29 06:36:38;;;;;;;14.68;3.45;;;31.10;58.50;;;;;;5072514;28;20028;-70
2021/10/29 06:39:07;;;;;;;12.43;3.10;;;30.50;57.30;;;;;;5073793;28;20410;-70
2021/10/29 06:41:36;;;;;;;8.63;2.65;;;30.80;57.00;;;;;;5072493;28;20032;-71
2021/10/29 06:44:18;;;;;;;18.13;3.92;;;30.50;57.30;;;;;;5072686;28;20042;-70
2021/10/29 06:49:20;;;;;;;11.05;2.75;;;30.70;56.20;;;;;;5073567;28;20536;-71
2021/10/29 07:41:37;;;;;;;12.57;2.80;;;27.10;57.70;;;;;;5077228;28;20026;-70
2021/10/29 07:44:14;;;;;;;9.30;2.80;;;26.90;57.40;;;;;;5076831;28;20036;-70
2021/10/29 07:46:43;;;;;;;8.02;2.90;;;26.70;57.20;;;;;;5076609;28;20028;-70
2021/10/29 07:49:10;;;;;;;7.97;2.75;;;26.60;56.90;;;;;;5075717;28;20017;-70
2021/10/29 07:51:41;;;;;;;6.13;2.70;;;26.50;57.00;;;;;;5076927;28;20049;-71
2021/10/29 07:54:09;;;;;;;7.43;3.00;;;26.40;57.20;;;;;;5075054;28;20027;-70
2021/10/29 07:56:36;;;;;;;8.68;2.53;;;26.30;57.30;;;;;;5076599;28;20063;-70
2021/10/29 07:59:05;;;;;;;5.65;2.90;;;26.30;57.30;;;;;;5075233;28;20024;-70
2021/10/29 08:01:32;;;;;;;7.35;2.70;;;26.20;57.60;;;;;;5076511;28;20370;-69
2021/10/29 08:04:00;;;;;;;9.73;3.33;;;26.10;57.50;;;;;;5074868;28;20021;-70
2021/10/29 08:06:27;;;;;;;6.13;2.60;;;26.20;60.20;;;;;;5076596;28;20397;-70
2021/10/29 08:08:54;;;;;;;5.78;2.33;;;26.00;59.50;;;;;;5076209;28;20036;-72
2021/10/29 08:11:21;;;;;;;6.13;2.75;;;26.00;74.50;;;;;;5076269;28;20392;-70
2021/10/29 08:13:49;;;;;;;5.72;2.50;;;25.90;59.00;;;;;;5076000;28;20016;-72
2021/10/29 08:16:17;;;;;;;6.22;2.50;;;25.80;58.30;;;;;;5076392;28;20424;-71
2021/10/29 08:18:45;;;;;;;7.00;2.40;;;25.70;58.00;;;;;;5074744;28;20056;-72
2021/10/29 08:21:13;;;;;;;3.72;2.00;;;25.70;57.90;;;;;;5076293;28;20062;-71
2021/10/29 08:23:42;;;;;;;4.72;2.28;;;25.60;58.00;;;;;;5074843;28;20027;-72
2021/10/29 08:26:14;;;;;;;5.47;2.60;;;25.60;58.30;;;;;;5076112;28;20442;-72
2021/10/29 08:28:45;;;;;;;5.45;2.38;;;25.50;58.60;;;;;;5076086;28;20111;-72
2021/10/29 08:31:12;;;;;;;6.47;2.55;;;25.40;58.50;;;;;;5074097;28;20497;-73
2021/10/29 08:33:40;;;;;;;3.22;2.25;;;25.30;59.10;;;;;;5074825;28;20028;-71
2021/10/29 08:36:08;;;;;;;5.57;2.28;;;25.30;58.20;;;;;;5075873;28;20509;-73
2021/10/29 08:38:35;;;;;;;4.25;2.20;;;25.20;58.80;;;;;;5074977;28;20020;-73
2021/10/29 08:41:03;;;;;;;5.00;1.90;;;25.10;58.70;;;;;;5076059;28;20047;-72
2021/10/29 08:43:30;;;;;;;2.30;2.10;;;25.10;58.70;;;;;;5074595;28;20032;-72
2021/10/29 08:45:58;;;;;;;5.25;2.47;;;25.20;70.70;;;;;;5075923;28;20063;-72
2021/10/29 08:48:26;;;;;;;4.43;2.10;;;25.10;70.40;;;;;;5074256;28;20035;-70
2021/10/29 08:50:54;;;;;;;8.52;3.30;;;25.00;70.20;;;;;;5074159;28;20027;-70
2021/10/29 08:53:22;;;;;;;5.82;2.80;;;25.00;70.20;;;;;;5075634;28;20473;-71
2021/10/29 08:55:49;;;;;;;6.47;2.08;;;24.90;70.20;;;;;;5075656;28;20048;-72
2021/10/29 08:58:18;;;;;;;4.63;2.17;;;24.90;70.40;;;;;;5075749;28;20082;-73
2021/10/29 09:00:46;;;;;;;4.35;2.30;;;24.90;69.90;;;;;;5074506;28;20554;-72
2021/10/29 09:03:40;;;;;;;5.05;2.08;;;24.80;69.80;;;;;;5074151;28;20512;-72
2021/10/29 09:07:18;;;;;;;2.88;1.95;;;24.70;69.60;;;;;;5075644;28;20101;-70
2021/10/29 09:09:30;;;;;;;3.05;1.80;;;24.80;69.30;;;;;;5070626;28;20117;-72
2021/10/29 09:31:22;;;;;;;4.03;1.65;;;24.60;69.60;;;;;;5074941;28;20128;-72
2021/10/29 09:31:36;;;;;;;5.13;2.63;;;24.30;70.10;;;;;;5074888;28;20158;-73
2021/10/29 09:34:12;;;;;;;5.82;2.33;;;24.30;70.20;;;;;;5073609;28;20023;-71
2021/10/29 09:36:45;;;;;;;3.88;2.50;;;24.20;70.70;;;;;;5074963;28;20024;-71
2021/10/29 09:39:17;;;;;;;4.63;2.47;;;24.20;70.90;;;;;;5074831;28;20043;-71
2021/10/29 09:41:45;;;;;;;3.22;2.40;;;24.10;71.00;;;;;;5074961;28;20031;-71
2021/10/29 09:44:18;;;;;;;5.05;2.10;;;24.10;71.60;;;;;;5073702;28;20103;-71
2021/10/29 09:46:58;;;;;;;2.97;2.00;;;24.10;71.00;;;;;;5074886;28;20052;-71
2021/10/29 09:50:07;;;;;;;4.18;2.45;;;24.00;70.80;;;;;;5073710;28;20049;-73
2021/10/29 09:57:24;;;;;;;4.57;2.35;;;23.70;71.40;;;;;;5074719;28;20025;-72
2021/10/29 09:59:58;;;;;;;2.50;2.30;;;23.80;71.40;;;;;;5073537;28;20036;-71
2021/10/29 10:02:28;;;;;;;2.92;2.30;;;23.70;71.20;;;;;;5073230;28;20031;-71
2021/10/29 10:05:02;;;;;;;3.50;2.30;;;23.70;71.40;;;;;;5074386;28;20025;-72
2021/10/29 10:07:44;;;;;;;3.95;2.40;;;23.60;70.70;;;;;;5074181;28;20112;-71
2021/10/29 10:10:11;;;;;;;5.53;2.30;;;23.70;71.50;;;;;;5073281;28;20025;-73
2021/10/29 10:12:45;;;;;;;3.58;2.65;;;23.60;70.80;;;;;;5073074;28;20042;-73
2021/10/29 10:15:14;;;;;;;3.47;2.60;;;23.60;71.30;;;;;;5073096;28;20021;-71
2021/10/29 10:17:43;;;;;;;4.55;2.30;;;23.50;71.00;;;;;;5072723;28;20079;-73
2021/10/29 10:20:11;;;;;;;2.42;2.20;;;23.50;71.20;;;;;;5073928;28;20024;-72
2021/10/29 10:22:46;;;;;;;2.60;2.40;;;23.50;70.70;;;;;;5074294;28;20031;-71
2021/10/29 10:42:26;;;;;;;5.73;2.20;;;23.20;70.90;;;;;;5074395;28;20496;-73
2021/10/29 10:45:32;;;;;;;4.65;2.78;;;23.20;71.30;;;;;;5072661;28;20366;-73
2021/10/29 10:47:54;;;;;;;3.25;2.70;;;22.90;71.70;;;;;;5073228;28;20398;-73
2021/10/29 10:50:31;;;;;;;2.65;2.55;;;22.80;72.70;;;;;;5072730;28;20048;-73
2021/10/29 10:53:17;;;;;;;2.47;2.38;;;22.60;73.90;;;;;;5073960;28;20038;-74
2021/10/29 10:56:03;;;;;;;2.85;2.65;;;22.40;74.60;;;;;;5072135;28;20445;-73
2021/10/29 10:58:42;;;;;;;3.03;2.70;;;22.30;75.80;;;;;;5072747;28;20032;-74
2021/10/29 11:01:33;;;;;;;3.25;2.53;;;22.20;76.20;;;;;;5072476;28;20418;-74
2021/10/29 11:12:46;;;;;;;3.03;2.72;;;21.50;78.20;;;;;;5074026;28;20032;-74
2021/10/29 11:15:24;;;;;;;3.10;2.80;;;21.50;78.80;;;;;;5068729;28;20040;-74
2021/10/29 11:17:57;;;;;;;3.83;3.10;;;21.30;78.50;;;;;;5072056;28;20409;-74
2021/10/29 11:20:42;;;;;;;3.63;3.33;;;21.40;78.90;;;;;;5073766;28;20358;-73
2021/10/29 11:23:18;;;;;;;4.05;3.10;;;21.30;79.10;;;;;;5072081;28;20020;-72
2021/10/29 11:26:02;;;;;;;3.53;2.97;;;21.20;79.10;;;;;;5073473;28;20016;-72
2021/10/29 11:28:42;;;;;;;3.53;3.10;;;21.20;79.40;;;;;;5072083;28;20025;-73
2021/10/29 11:31:15;;;;;;;3.20;2.90;;;21.20;79.90;;;;;;5073508;28;20020;-72
2021/10/29 11:33:48;;;;;;;3.80;2.90;;;21.20;79.50;;;;;;5073498;28;20389;-73
2021/10/29 11:36:21;;;;;;;3.05;2.83;;;21.30;79.60;;;;;;5073287;28;20155;-73
2021/10/29 11:38:50;;;;;;;3.47;2.67;;;21.20;80.10;;;;;;5073579;28;20456;-73
2021/10/29 11:41:21;;;;;;;2.83;2.58;;;21.20;79.70;;;;;;5072154;28;20044;-73
2021/10/29 11:43:50;;;;;;;2.95;2.63;;;21.20;80.00;;;;;;5073320;28;20016;-70
2021/10/29 11:46:22;;;;;;;2.65;2.38;;;21.20;79.10;;;;;;5070703;28;20035;-72
2021/10/29 11:48:53;;;;;;;2.58;2.40;;;21.30;79.20;;;;;;5073128;28;20024;-71
2021/10/29 11:51:23;;;;;;;2.95;2.65;;;21.30;79.90;;;;;;5072883;28;20017;-72
2021/10/29 11:53:59;;;;;;;2.60;2.40;;;21.10;80.40;;;;;;5072036;28;20547;-73
2021/10/29 12:07:27;;;;;;;3.15;2.90;;;20.30;85.00;;;;;;5075768;28;20074;-73
2021/10/29 12:09:56;;;;;;;3.10;2.80;;;20.20;85.50;;;;;;5076778;28;20470;-73
2021/10/29 12:12:28;;;;;;;3.10;2.90;;;20.10;85.30;;;;;;5075341;28;20111;-73
2021/10/29 12:15:07;;;;;;;3.30;3.00;;;20.00;85.80;;;;;;5075133;28;20397;-72
2021/10/29 12:17:47;;;;;;;3.00;2.80;;;20.00;85.80;;;;;;5076401;28;20090;-72
2021/10/29 12:20:38;;;;;;;3.75;3.42;;;19.90;85.50;;;;;;5075395;28;20081;-72
2021/10/29 12:23:17;;;;;;;3.13;2.92;;;19.90;85.10;;;;;;5075201;28;20508;-72
2021/10/29 12:28:42;;;;;;;3.70;3.35;;;19.90;85.60;;;;;;5075931;28;20112;-71
2021/10/29 12:31:22;;;;;;;3.28;3.05;;;19.90;85.20;;;;;;5075196;28;20056;-72
2021/10/29 12:53:32;;;;;;;2.42;2.33;;;20.50;85.10;;;;;;5076059;28;20081;-72
2021/10/29 13:02:00;;;;;;;2.67;2.47;;;20.30;86.30;;;;;;5076230;28;20031;-73
2021/10/29 13:04:46;;;;;;;3.13;2.88;;;20.30;86.10;;;;;;5074324;28;20083;-72
2021/10/29 13:07:14;;;;;;;3.03;2.80;;;20.10;86.20;;;;;;5074435;28;20484;-72
2021/10/29 13:09:42;;;;;;;3.10;2.90;;;20.10;86.60;;;;;;5074290;28;20517;-72
2021/10/29 13:12:28;;;;;;;4.20;3.00;;;20.00;87.40;;;;;;5074229;28;20021;-74
2021/10/29 13:15:00;;;;;;;3.22;2.90;;;19.90;86.80;;;;;;5074128;28;20082;-72
2021/10/29 13:17:34;;;;;;;3.25;2.90;;;19.90;86.80;;;;;;5075110;28;20448;-72
2021/10/29 13:52:45;;;;;;;3.20;2.50;;;19.20;86.80;;;;;;5074753;28;20069;-72
2021/10/29 14:30:18;;;;;;;3.22;2.38;;;18.90;86.80;;;;;;5073924;28;20039;-72
2021/10/29 14:32:56;;;;;;;3.25;2.20;;;19.00;86.30;;;;;;5072873;28;20024;-71
2021/10/29 14:43:32;;;;;;;2.60;2.40;;;19.00;86.60;;;;;;5061559;28;20041;-72
2021/10/29 14:48:49;;;;;;;3.10;2.45;;;19.00;86.90;;;;;;5073696;28;20104;-72
2021/10/29 15:02:38;;;;;;;2.30;2.20;;;18.60;89.20;;;;;;5073981;28;20031;-71
2021/10/29 15:15:50;;;;;;;2.50;2.30;;;18.40;88.40;;;;;;5073981;28;20016;-72
2021/10/29 15:29:34;;;;;;;2.65;2.45;;;18.20;89.10;;;;;;5073468;28;20027;-72
2021/10/29 15:45:35;;;;;;;2.58;2.30;;;18.20;90.10;;;;;;5077413;28;20024;-71
2021/10/29 15:50:42;;;;;;;2.35;2.20;;;18.10;90.50;;;;;;5076983;28;20385;-71
2021/10/29 15:53:14;;;;;;;2.30;2.20;;;18.00;90.30;;;;;;5077229;28;20453;-71
2021/10/29 15:55:52;;;;;;;3.03;2.75;;;18.00;90.40;;;;;;5075591;28;20021;-71
2021/10/29 16:01:42;;;;;;;2.50;2.30;;;17.90;90.40;;;;;;5034574;28;20029;-71
2021/10/29 16:17:57;;;;;;;2.50;2.30;;;17.70;90.20;;;;;;5076460;28;20059;-71
2021/10/29 16:20:25;;;;;;;2.50;2.30;;;17.70;90.00;;;;;;5076685;28;20393;-72
2021/10/29 16:22:55;;;;;;;2.30;2.20;;;17.70;90.20;;;;;;5075284;28;20035;-72
2021/10/29 16:25:29;;;;;;;4.03;2.42;;;17.60;90.10;;;;;;5075063;28;20028;-72
2021/10/29 16:27:59;;;;;;;2.58;2.38;;;17.60;90.10;;;;;;5075172;28;20028;-72
2021/10/29 16:30:28;;;;;;;2.33;2.10;;;17.60;89.30;;;;;;5076510;28;20016;-71
2021/10/29 16:35:30;;;;;;;2.30;2.10;;;17.50;89.30;;;;;;5076491;28;20427;-71
2021/10/29 16:37:57;;;;;;;2.35;2.10;;;17.50;89.30;;;;;;5074824;28;20055;-71
2021/10/29 16:40:25;;;;;;;2.20;2.10;;;17.40;89.40;;;;;;5076012;28;20029;-72
2021/10/29 16:42:53;;;;;;;2.60;2.22;;;17.40;89.10;;;;;;5074845;28;20477;-71
2021/10/29 16:45:22;;;;;;;2.88;2.20;;;17.40;89.40;;;;;;5074888;28;20021;-72
2021/10/29 16:47:49;;;;;;;2.45;2.35;;;17.40;89.50;;;;;;5075058;28;20519;-72
2021/10/29 16:50:20;;;;;;;2.20;2.10;;;17.40;89.20;;;;;;5076173;28;20522;-72
2021/10/29 16:52:48;;;;;;;;;;;17.40;89.60;;;;;;5076193;28;20381;-72
2021/10/29 16:55:16;;;;;;;2.33;2.22;;;17.40;89.30;;;;;;5075005;28;19958;-72
2021/10/29 16:57:44;;;;;;;2.70;2.50;;;17.30;89.90;;;;;;5074629;28;20020;-72
2021/10/29 17:00:14;;;;;;;2.58;2.30;;;17.30;89.10;;;;;;5074429;28;20024;-71
2021/10/29 17:02:41;;;;;;;2.42;2.30;;;17.30;89.10;;;;;;5075961;28;20533;-71
2021/10/29 17:05:11;;;;;;;2.47;2.28;;;17.30;88.50;;;;;;5075796;28;20025;-71
2021/10/29 17:07:39;;;;;;;2.40;2.30;;;17.30;90.20;;;;;;5074465;28;20029;-72
2021/10/29 17:10:08;;;;;;;2.40;2.30;;;17.20;88.70;;;;;;5075668;28;20099;-72
2021/10/29 17:12:43;;;;;;;2.42;2.33;;;17.20;90.00;;;;;;5075398;28;20024;-71
2021/10/29 17:15:13;;;;;;;2.50;2.30;;;17.10;89.70;;;;;;5074085;28;20027;-71
2021/10/29 17:17:42;;;;;;;2.73;2.50;;;17.10;90.30;;;;;;5075201;28;20123;-71
2021/10/29 17:20:12;;;;;;;2.40;2.30;;;17.00;90.20;;;;;;5057658;28;20630;-72
2021/10/29 17:22:40;;;;;;;3.20;2.60;;;17.00;90.50;;;;;;5074066;28;20024;-72
2021/10/29 17:25:09;;;;;;;2.40;2.30;;;16.90;91.00;;;;;;5075294;28;20025;-70
2021/10/29 17:27:37;;;;;;;2.45;2.30;;;16.80;90.80;;;;;;5075154;28;20020;-71
2021/10/29 17:30:05;;;;;;;2.20;2.00;;;16.90;90.90;;;;;;5073988;28;20115;-72
2021/10/29 17:32:33;;;;;;;2.33;2.00;;;16.80;90.90;;;;;;5075426;28;20019;-72
2021/10/29 17:35:01;;;;;;;2.22;2.13;;;16.80;90.70;;;;;;5075555;28;20016;-72
2021/10/29 17:37:32;;;;;;;3.03;2.53;;;16.80;91.00;;;;;;5075213;28;20028;-72
2021/10/29 17:40:05;;;;;;;2.40;2.30;;;16.70;90.80;;;;;;5075185;28;20092;-72
2021/10/29 17:42:33;;;;;;;2.70;2.50;;;16.60;91.20;;;;;;5073902;28;20095;-71
2021/10/29 17:45:00;;;;;;;2.67;2.50;;;16.60;90.60;;;;;;5073793;28;20123;-72
2021/10/29 17:47:28;;;;;;;2.70;2.60;;;16.60;90.70;;;;;;5073525;28;20032;-71
2021/10/29 17:49:56;;;;;;;2.67;2.50;;;16.50;91.30;;;;;;5073586;28;20120;-71
2021/10/29 17:52:27;;;;;;;2.70;2.40;;;16.50;90.70;;;;;;5073534;28;20382;-72
2021/10/29 17:54:59;;;;;;;2.60;2.50;;;16.50;90.80;;;;;;5073466;28;20031;-71
2021/10/29 17:57:27;;;;;;;2.92;2.60;;;16.50;91.30;;;;;;5074562;28;20035;-72
2021/10/29 17:59:57;;;;;;;3.40;2.50;;;16.50;91.00;;;;;;5073223;28;20174;-72
2021/10/29 18:02:25;;;;;;;3.27;2.40;;;16.40;90.70;;;;;;5073354;28;20059;-73
2021/10/29 18:04:54;;;;;;;2.50;2.22;;;16.40;91.00;;;;;;5073576;28;20016;-73
2021/10/29 18:07:25;;;;;;;2.65;2.50;;;16.40;91.20;;;;;;5073182;28;20090;-71
2021/10/29 18:09:54;;;;;;;2.42;2.13;;;16.40;91.10;;;;;;5073322;28;20477;-72
2021/10/29 18:12:22;;;;;;;2.60;2.40;;;16.30;91.60;;;;;;5074470;28;20016;-72
2021/10/29 18:14:51;;;;;;;3.05;2.47;;;16.30;92.00;;;;;;5074488;28;20021;-71
2021/10/29 18:17:19;;;;;;;3.63;2.55;;;16.20;92.60;;;;;;5074043;28;20071;-72
2021/10/29 18:19:47;;;;;;;2.28;2.17;;;16.20;92.50;;;;;;5073019;28;20078;-72
2021/10/29 18:22:15;;;;;;;3.75;2.20;;;16.20;92.00;;;;;;5072905;28;20031;-71
2021/10/29 18:24:43;;;;;;;2.33;2.20;;;16.10;92.20;;;;;;5073927;28;20505;-72
2021/10/29 18:27:13;;;;;;;3.08;2.78;;;16.10;92.80;;;;;;5074014;28;20067;-72